Etusivu
METAR-TAF:

METAR-TAF

Lentoasemat :

Namsos, Norja

Leveyspiiri: 64-28N, Pituuspiiri: 011-35E, korkeus merenpinnasta: 0 m

Tämänhetkinen sää

Tämä raportti tehtiin 2 tuntia ja 47 minuuttia sitten, kello 20.50 UTC
Tuuli 9 kn idästä/koillisesta, vaihdellen pohjoisen ja kaakon välillä
Lämpötila 0°C
Kosteus 100%
Ilmanpaine 1036 hPa
Näkyvyys 10 km tai enemmän
Hajanaisia pilviä 800 ft:n korkeudessa
Hajanaisia pilviä 1100 ft:n korkeudessa

METAR: ENNM 202050Z 06009KT 010V140 9999 SCT008 SCT011 00/M00 Q1036

Aika: 00:37 (23:37 UTC)


TAF: puuttuu

Säähavainnot ja -ennusteet yli 4000 lentoasemalta (METAR- ja TAF-raportit).

Käytössä olevat sääasemat on merkitty karttaan keltaisilla ja punaisilla pisteillä.

Aseta hiiri pisteen päälle nähdäksesi sääaseman nimen.

Klikkaa sitten nähdäksesi säähavainnot ja -ennusteet.

Kartan vaihtaminen: klikkaa mustalla rastilla varustettuja vihreitä pisteitä, niin voit zoomata sisään; viivalla varustettua vihreää pistettä, niin voit zoomata ulos tai vihreitä nuolia, niin pääset viereisille kartoille.


METAR-TAF: